Time;durP1;ratioP1;P1;durP2;ratioP2;P2;SDS_P1;SDS_P2;PMS_P1;PMS_P2;Temp;Humidity;BMP_temperature;BMP_pressure;BME280_temperature;BME280_humidity;BME280_pressure;Samples;Min_cycle;Max_cycle;Signal;HPM_P1;HPM_P2
2023/10/17 00:02:06;;;;;;;18.35;3.60;;;;;;;;;;4987741;28;20410;-72
2023/10/17 00:04:32;;;;;;;7.03;3.25;;;;;;;;;;4986473;28;20042;-73
2023/10/17 00:06:59;;;;;;;7.70;2.88;;;;;;;;;;4981239;28;20037;-73
2023/10/17 00:09:25;;;;;;;6.70;2.97;;;;;;;;;;4988298;28;20132;-74
2023/10/17 00:14:23;;;;;;;9.90;3.42;;;;;;;;;;4980257;28;20122;-72
2023/10/17 00:16:55;;;;;;;7.28;2.67;;;;;;;;;;4968456;28;20035;-72
2023/10/17 00:19:26;;;;;;;7.70;2.88;;;;;;;;;;4988580;28;20093;-71
2023/10/17 00:21:55;;;;;;;7.78;2.85;;;;;;;;;;4980007;28;20754;-70
2023/10/17 00:24:23;;;;;;;9.15;3.25;;;;;;;;;;4973930;28;20031;-70
2023/10/17 00:26:49;;;;;;;5.82;3.20;;;;;;;;;;4968680;28;20042;-72
2023/10/17 00:29:15;;;;;;;6.82;3.20;;;;;;;;;;4969152;28;20125;-70
2023/10/17 00:31:43;;;;;;;7.28;2.75;;;;;;;;;;4970270;28;20035;-72
2023/10/17 00:34:21;;;;;;;7.68;3.28;;;;;;;;;;5008437;28;20027;-72
2023/10/17 00:39:32;;;;;;;8.05;2.83;;;;;;;;;;4976794;28;20070;-72
2023/10/17 00:44:38;;;;;;;7.93;2.65;;;;;;;;;;4975669;28;20045;-72
2023/10/17 00:47:09;;;;;;;5.80;3.38;;;;;;;;;;4975492;28;20031;-72
2023/10/17 00:49:42;;;;;;;9.80;2.70;;;;;;;;;;4975490;28;20181;-71
2023/10/17 00:52:23;;;;;;;6.25;2.92;;;;;;;;;;4976663;28;20023;-72
2023/10/17 00:54:51;;;;;;;6.68;2.78;;;;;;;;;;4975055;28;20038;-73
2023/10/17 00:57:18;;;;;;;10.02;3.28;;;;;;;;;;4975030;28;20046;-72
2023/10/17 00:59:50;;;;;;;11.65;3.60;;;;;;;;;;4972551;28;20117;-71
2023/10/17 01:05:57;;;;;;;7.97;3.08;;;;;;;;;;4973526;28;20448;-70
2023/10/17 01:08:46;;;;;;;7.07;3.03;;;;;;;;;;4975090;28;20089;-71
2023/10/17 01:11:20;;;;;;;7.53;3.00;;;;;;;;;;4974949;28;20019;-72
2023/10/17 01:13:49;;;;;;;6.72;2.63;;;;;;;;;;4976133;28;20062;-71
2023/10/17 01:16:16;;;;;;;7.57;2.85;;;;;;;;;;4984131;28;20486;-73
2023/10/17 01:18:45;;;;;;;5.97;2.70;;;;;;;;;;4976347;28;20031;-73
2023/10/17 01:21:13;;;;;;;8.85;3.33;;;;;;;;;;4975094;28;20026;-72
2023/10/17 01:23:39;;;;;;;5.70;2.72;;;;;;;;;;4976088;28;20042;-73
2023/10/17 01:26:09;;;;;;;8.45;2.80;;;;;;;;;;4974680;28;20042;-72
2023/10/17 01:28:35;;;;;;;7.25;3.10;;;;;;;;;;4974676;28;20487;-72
2023/10/17 01:31:03;;;;;;;8.50;2.67;;;;;;;;;;4974561;28;20046;-71
2023/10/17 01:33:30;;;;;;;10.90;3.00;;;;;;;;;;4974837;28;20034;-72
2023/10/17 01:36:00;;;;;;;9.20;3.03;;;;;;;;;;4974368;28;20466;-72
2023/10/17 01:38:28;;;;;;;8.40;2.92;;;;;;;;;;4975742;28;20503;-72
2023/10/17 01:40:59;;;;;;;6.68;3.10;;;;;;;;;;4974499;28;20127;-72
2023/10/17 01:43:30;;;;;;;14.82;3.25;;;;;;;;;;4974532;28;20045;-72
2023/10/17 01:45:56;;;;;;;7.18;2.92;;;;;;;;;;4974110;28;20034;-71
2023/10/17 01:48:24;;;;;;;8.02;2.92;;;;;;;;;;4975718;28;20033;-71
2023/10/17 01:50:50;;;;;;;7.45;2.90;;;;;;;;;;4974370;28;20038;-71
2023/10/17 01:53:15;;;;;;;10.60;3.10;;;;;;;;;;4974265;28;20027;-70
2023/10/17 01:55:45;;;;;;;6.20;2.63;;;;;;;;;;4975463;28;20444;-71
2023/10/17 01:58:15;;;;;;;11.52;3.55;;;;;;;;;;4974068;28;20023;-71
2023/10/17 02:00:42;;;;;;;6.72;2.80;;;;;;;;;;4974078;28;20523;-71
2023/10/17 02:03:12;;;;;;;8.70;3.33;;;;;;;;;;4975377;28;20033;-72
2023/10/17 02:05:38;;;;;;;6.32;2.42;;;;;;;;;;4983307;28;20097;-72
2023/10/17 02:08:08;;;;;;;7.10;4.05;;;;;;;;;;4973839;28;20027;-72
2023/10/17 02:10:34;;;;;;;9.15;3.25;;;;;;;;;;4975335;28;20035;-72
2023/10/17 02:13:00;;;;;;;9.05;3.20;;;;;;;;;;4973654;28;20035;-72
2023/10/17 02:15:26;;;;;;;7.72;3.30;;;;;;;;;;4970537;28;20035;-72
2023/10/17 02:17:53;;;;;;;10.25;3.20;;;;;;;;;;4974586;28;20034;-72
2023/10/17 02:20:30;;;;;;;6.57;2.92;;;;;;;;;;4974066;28;20041;-72
2023/10/17 02:22:57;;;;;;;6.28;3.25;;;;;;;;;;4956991;28;20058;-72
2023/10/17 02:25:36;;;;;;;7.55;3.15;;;;;;;;;;4993794;28;20489;-71
2023/10/17 02:28:02;;;;;;;8.25;3.08;;;;;;;;;;4992395;28;20038;-73
2023/10/17 02:30:28;;;;;;;7.53;3.10;;;;;;;;;;4992496;28;20445;-72
2023/10/17 02:32:55;;;;;;;7.25;3.38;;;;;;;;;;4973435;28;20045;-73
2023/10/17 02:35:40;;;;;;;12.45;3.28;;;;;;;;;;4974254;28;20031;-73
2023/10/17 02:38:08;;;;;;;11.07;3.28;;;;;;;;;;4971687;28;20035;-72
2023/10/17 02:40:34;;;;;;;7.45;2.80;;;;;;;;;;4974608;28;20101;-71
2023/10/17 02:43:01;;;;;;;8.82;3.10;;;;;;;;;;4974797;28;20042;-71
2023/10/17 02:45:26;;;;;;;10.88;3.30;;;;;;;;;;4973481;28;20026;-72
2023/10/17 02:47:57;;;;;;;13.23;3.60;;;;;;;;;;4973294;28;20057;-70
2023/10/17 02:52:59;;;;;;;5.95;2.50;;;;;;;;;;4973350;28;20045;-72
2023/10/17 02:55:25;;;;;;;11.90;3.05;;;;;;;;;;4956954;28;20030;-72
2023/10/17 02:57:54;;;;;;;8.32;2.72;;;;;;;;;;4973134;28;20042;-72
2023/10/17 03:00:35;;;;;;;5.68;2.40;;;;;;;;;;4973189;28;20388;-72
2023/10/17 03:03:12;;;;;;;7.43;2.40;;;;;;;;;;4973160;28;20490;-71
2023/10/17 03:05:44;;;;;;;4.07;2.13;;;;;;;;;;4972700;28;20400;-72
2023/10/17 03:08:15;;;;;;;8.07;2.20;;;;;;;;;;4970298;28;20054;-71
2023/10/17 03:10:42;;;;;;;6.00;2.35;;;;;;;;;;4968174;28;20037;-71
2023/10/17 03:15:55;;;;;;;7.43;2.00;;;;;;;;;;4971886;28;20042;-71
2023/10/17 03:18:21;;;;;;;10.02;2.63;;;;;;;;;;4972253;28;20058;-71
2023/10/17 03:20:53;;;;;;;8.00;2.45;;;;;;;;;;4974101;28;20027;-71
2023/10/17 03:23:29;;;;;;;5.20;2.20;;;;;;;;;;4971914;28;20610;-71
2023/10/17 03:26:05;;;;;;;9.00;2.50;;;;;;;;;;4973071;28;20042;-71
2023/10/17 03:28:34;;;;;;;6.70;2.60;;;;;;;;;;4972177;28;20132;-72
2023/10/17 03:31:00;;;;;;;6.50;2.72;;;;;;;;;;4973575;28;20023;-73
2023/10/17 03:33:32;;;;;;;15.70;2.72;;;;;;;;;;4971982;28;20030;-72
2023/10/17 03:38:37;;;;;;;6.97;2.85;;;;;;;;;;4972083;28;20037;-71
2023/10/17 03:41:15;;;;;;;5.97;2.28;;;;;;;;;;4983758;28;20026;-70
2023/10/17 03:43:50;;;;;;;8.23;3.00;;;;;;;;;;4992867;28;20104;-72
2023/10/17 03:46:15;;;;;;;5.95;2.47;;;;;;;;;;4991869;28;20042;-72
2023/10/17 03:48:50;;;;;;;6.70;2.17;;;;;;;;;;4991847;28;20396;-72
2023/10/17 03:51:23;;;;;;;9.27;2.75;;;;;;;;;;4988726;28;20058;-70
2023/10/17 03:53:49;;;;;;;10.93;3.38;;;;;;;;;;4992346;28;20395;-73
2023/10/17 03:56:24;;;;;;;8.10;2.40;;;;;;;;;;4991778;28;20034;-71
2023/10/17 03:58:57;;;;;;;9.05;2.47;;;;;;;;;;4992031;28;20120;-73
2023/10/17 04:01:23;;;;;;;4.38;2.28;;;;;;;;;;4979242;28;20437;-71
2023/10/17 04:03:55;;;;;;;9.50;3.10;;;;;;;;;;4972160;28;20097;-71
2023/10/17 04:06:39;;;;;;;12.65;3.15;;;;;;;;;;4971653;28;20033;-71
2023/10/17 04:11:49;;;;;;;6.65;2.33;;;;;;;;;;4972338;28;20035;-72
2023/10/17 04:14:17;;;;;;;6.93;2.50;;;;;;;;;;4972602;28;20033;-72
2023/10/17 04:16:48;;;;;;;8.77;2.70;;;;;;;;;;4972404;28;20045;-72
2023/10/17 04:19:17;;;;;;;4.80;2.20;;;;;;;;;;4972456;28;20034;-71
2023/10/17 04:24:43;;;;;;;9.30;2.75;;;;;;;;;;4964848;28;20027;-71
2023/10/17 04:29:49;;;;;;;10.85;2.67;;;;;;;;;;4966660;28;20034;-71
2023/10/17 04:32:16;;;;;;;9.27;2.90;;;;;;;;;;4972105;28;20202;-70
2023/10/17 04:34:48;;;;;;;8.68;2.25;;;;;;;;;;4971951;28;20035;-72
2023/10/17 04:37:24;;;;;;;10.75;2.75;;;;;;;;;;4972195;28;20182;-73
2023/10/17 04:39:57;;;;;;;8.43;2.47;;;;;;;;;;4971988;28;20039;-71
2023/10/17 04:42:47;;;;;;;;;;;;;;;;;;4970762;28;20039;-71
2023/10/17 04:45:14;;;;;;;5.45;2.78;;;;;;;;;;4971801;28;19914;-72
2023/10/17 04:47:43;;;;;;;6.63;2.38;;;;;;;;;;4972347;28;20027;-72
2023/10/17 04:50:12;;;;;;;7.55;2.78;;;;;;;;;;4971941;28;20031;-73
2023/10/17 04:52:41;;;;;;;5.70;2.10;;;;;;;;;;4972556;28;20074;-72
2023/10/17 04:55:29;;;;;;;6.38;2.72;;;;;;;;;;4971829;28;20039;-70
2023/10/17 05:00:42;;;;;;;6.47;2.83;;;;;;;;;;4971875;28;20023;-72
2023/10/17 05:03:55;;;;;;;7.55;3.10;;;;;;;;;;4972193;28;20039;-72
2023/10/17 05:09:12;;;;;;;8.38;3.40;;;;;;;;;;4971453;28;20033;-71
2023/10/17 06:17:31;;;;;;;6.25;2.50;;;;;;;;;;4974291;28;20113;-71
2023/10/17 06:20:00;;;;;;;5.22;2.58;;;;;;;;;;4974357;28;20073;-72
2023/10/17 06:30:34;;;;;;;4.15;2.22;;;;;;;;;;4973590;28;20038;-72
2023/10/17 06:35:43;;;;;;;6.57;2.80;;;;;;;;;;4965520;28;20050;-72
2023/10/17 06:38:09;;;;;;;6.43;2.10;;;;;;;;;;4973358;28;20045;-71
2023/10/17 06:40:44;;;;;;;5.82;2.38;;;;;;;;;;4977755;28;20281;-71
2023/10/17 06:43:14;;;;;;;7.50;2.33;;;;;;;;;;4973744;28;20038;-70
2023/10/17 06:45:54;;;;;;;8.70;2.35;;;;;;;;;;4973258;28;20034;-72
2023/10/17 06:48:31;;;;;;;5.90;1.83;;;;;;;;;;4973341;28;20493;-69
2023/10/17 06:53:47;;;;;;;5.22;1.83;;;;;;;;;;4986482;28;20109;-71
2023/10/17 06:56:13;;;;;;;4.75;2.10;;;;;;;;;;4973347;28;20448;-71
2023/10/17 06:58:39;;;;;;;25.00;3.47;;;;;;;;;;4972876;28;20042;-71
2023/10/17 07:01:05;;;;;;;10.25;2.50;;;;;;;;;;4972725;28;20030;-71
2023/10/17 07:03:37;;;;;;;14.77;4.28;;;;;;;;;;4973044;28;20037;-71
2023/10/17 07:06:24;;;;;;;11.23;2.20;;;;;;;;;;4973274;28;20129;-71
2023/10/17 07:08:50;;;;;;;6.70;2.30;;;;;;;;;;4973233;28;20166;-70
2023/10/17 07:14:21;;;;;;;19.38;2.45;;;;;;;;;;4972685;28;20053;-70
2023/10/17 07:16:57;;;;;;;9.18;1.73;;;;;;;;;;4973043;28;20466;-71
2023/10/17 07:24:34;;;;;;;11.98;2.25;;;;;;;;;;4972631;28;20385;-74
2023/10/17 07:27:01;;;;;;;8.20;1.58;;;;;;;;;;4986845;28;20061;-69
2023/10/17 07:29:33;;;;;;;7.60;1.80;;;;;;;;;;4972363;28;20401;-71
2023/10/17 07:32:09;;;;;;;6.22;1.83;;;;;;;;;;4973141;28;20038;-72
2023/10/17 07:34:37;;;;;;;5.22;1.80;;;;;;;;;;4972864;28;20121;-72
2023/10/17 07:42:40;;;;;;;3.72;1.90;;;;;;;;;;4972947;28;20172;-70
2023/10/17 07:45:15;;;;;;;6.50;1.70;;;;;;;;;;4974310;28;20460;-72
2023/10/17 07:47:42;;;;;;;5.72;1.77;;;;;;;;;;4990936;28;20469;-70
2023/10/17 07:50:14;;;;;;;10.55;2.70;;;;;;;;;;4991887;28;20026;-70
2023/10/17 07:52:43;;;;;;;3.42;1.48;;;;;;;;;;4992148;28;20105;-70
2023/10/17 07:55:19;;;;;;;6.70;1.58;;;;;;;;;;4992346;28;20046;-71
2023/10/17 07:57:51;;;;;;;6.20;2.10;;;;;;;;;;4991905;28;20082;-71
2023/10/17 08:00:27;;;;;;;3.75;1.30;;;;;;;;;;4991812;28;20045;-72
2023/10/17 08:02:55;;;;;;;6.28;2.17;;;;;;;;;;4991797;28;20061;-70
2023/10/17 08:05:23;;;;;;;8.40;1.85;;;;;;;;;;4991975;28;20539;-70
2023/10/17 08:07:49;;;;;;;3.10;1.35;;;;;;;;;;4991284;28;20034;-71
2023/10/17 08:10:30;;;;;;;8.80;2.10;;;;;;;;;;4991635;28;20381;-71
2023/10/17 08:13:00;;;;;;;6.85;1.90;;;;;;;;;;4983885;28;20042;-69
2023/10/17 08:16:04;;;;;;;4.57;1.70;;;;;;;;;;4971732;28;20370;-71
2023/10/17 08:18:22;;;;;;;21.70;2.75;;;;;;;;;;4970484;28;20501;-70
2023/10/17 08:23:27;;;;;;;10.93;2.47;;;;;;;;;;4970735;28;20508;-70
2023/10/17 08:26:00;;;;;;;6.47;1.50;;;;;;;;;;4970621;28;20035;-68
2023/10/17 08:28:50;;;;;;;4.13;1.58;;;;;;;;;;4971932;28;20484;-71
2023/10/17 08:31:35;;;;;;;3.60;1.25;;;;;;;;;;4970833;28;20043;-72
2023/10/17 08:41:57;;;;;;;7.55;1.48;;;;;;;;;;4970690;28;20041;-71
2023/10/17 08:44:32;;;;;;;3.28;1.50;;;;;;;;;;4970524;28;20547;-71
2023/10/17 08:46:58;;;;;;;2.92;1.42;;;;;;;;;;4972031;28;20499;-70
2023/10/17 08:49:27;;;;;;;5.97;1.88;;;;;;;;;;4970889;28;20549;-71
2023/10/17 08:51:56;;;;;;;9.07;2.00;;;;;;;;;;4973622;28;20042;-71
2023/10/17 08:54:29;;;;;;;3.30;1.40;;;;;;;;;;4975858;28;20054;-71
2023/10/17 08:56:59;;;;;;;8.15;3.10;;;;;;;;;;4975382;28;20109;-72
2023/10/17 09:02:32;;;;;;;10.18;4.07;;;;;;;;;;4975250;28;20033;-71
2023/10/17 09:05:26;;;;;;;17.35;5.32;;;;;;;;;;4974101;28;20035;-72
2023/10/17 09:07:58;;;;;;;7.50;4.68;;;;;;;;;;4975682;28;20045;-71
2023/10/17 09:10:41;;;;;;;10.60;4.50;;;;;;;;;;4975733;28;20092;-71
2023/10/17 09:15:56;;;;;;;11.00;4.68;;;;;;;;;;4974870;28;20050;-70
2023/10/17 09:18:28;;;;;;;8.10;4.00;;;;;;;;;;4974331;28;20488;-71
2023/10/17 09:20:55;;;;;;;7.80;3.40;;;;;;;;;;4975566;28;20515;-71
2023/10/17 09:23:27;;;;;;;9.85;3.20;;;;;;;;;;4975363;28;20027;-71
2023/10/17 09:25:57;;;;;;;5.97;3.05;;;;;;;;;;4967572;28;20030;-71
2023/10/17 09:28:25;;;;;;;10.48;3.28;;;;;;;;;;4974475;28;20437;-72
2023/10/17 09:31:08;;;;;;;5.82;2.47;;;;;;;;;;4967103;28;20027;-71
2023/10/17 09:33:35;;;;;;;;;;;;;;;;;;4975687;28;20524;-73
2023/10/17 09:36:06;;;;;;;4.07;1.50;;;;;;;;;;4974914;28;20298;-72
2023/10/17 09:38:41;;;;;;;6.80;1.55;;;;;;;;;;4974844;28;20043;-73
2023/10/17 09:41:08;;;;;;;5.75;1.60;;;;;;;;;;4974836;28;20047;-70
2023/10/17 09:43:45;;;;;;;3.53;1.45;;;;;;;;;;4975003;28;20505;-71
2023/10/17 09:46:14;;;;;;;5.25;1.70;;;;;;;;;;4975001;28;20059;-72
2023/10/17 09:48:46;;;;;;;4.97;1.63;;;;;;;;;;4974673;28;20039;-72
2023/10/17 09:51:22;;;;;;;6.93;1.55;;;;;;;;;;4976355;28;20110;-71
2023/10/17 09:53:53;;;;;;;3.17;1.85;;;;;;;;;;4974151;28;20038;-72
2023/10/17 09:56:25;;;;;;;5.65;1.80;;;;;;;;;;4975405;28;20161;-71
2023/10/17 09:58:53;;;;;;;5.68;2.47;;;;;;;;;;4975662;28;20090;-71
2023/10/17 10:01:21;;;;;;;6.18;2.78;;;;;;;;;;4975816;28;20082;-72
2023/10/17 10:03:51;;;;;;;15.43;3.60;;;;;;;;;;4975273;28;20046;-72
2023/10/17 10:06:26;;;;;;;8.73;3.30;;;;;;;;;;4977090;28;20041;-72
2023/10/17 10:08:56;;;;;;;10.88;3.17;;;;;;;;;;4977962;28;20065;-73
2023/10/17 10:11:48;;;;;;;9.15;3.97;;;;;;;;;;4976425;28;20030;-71
2023/10/17 10:14:15;;;;;;;10.23;3.40;;;;;;;;;;4972655;28;20046;-70
2023/10/17 10:16:53;;;;;;;7.35;2.88;;;;;;;;;;4975780;28;20351;-71
2023/10/17 10:19:22;;;;;;;11.85;3.45;;;;;;;;;;4970461;28;20031;-72
2023/10/17 10:21:54;;;;;;;7.57;3.13;;;;;;;;;;4976263;28;20031;-73
2023/10/17 10:24:28;;;;;;;8.43;3.67;;;;;;;;;;4975921;28;20035;-73
2023/10/17 10:27:15;;;;;;;10.90;3.50;;;;;;;;;;4976314;28;20031;-71
2023/10/17 10:29:42;;;;;;;12.13;3.78;;;;;;;;;;4973154;28;20039;-72
2023/10/17 10:32:34;;;;;;;9.30;3.42;;;;;;;;;;4974296;28;20027;-71
2023/10/17 10:35:01;;;;;;;5.68;2.70;;;;;;;;;;4973250;28;20038;-72
2023/10/17 10:37:27;;;;;;;7.72;3.03;;;;;;;;;;4993993;28;20101;-70
2023/10/17 10:40:22;;;;;;;7.68;3.35;;;;;;;;;;4993741;28;20526;-70
2023/10/17 10:42:53;;;;;;;10.75;4.60;;;;;;;;;;4993291;28;20049;-71
2023/10/17 10:45:58;;;;;;;15.90;4.18;;;;;;;;;;4993188;28;20177;-71
2023/10/17 10:48:23;;;;;;;9.27;3.25;;;;;;;;;;4993826;28;20046;-70
2023/10/17 10:50:55;;;;;;;10.65;3.30;;;;;;;;;;4992819;28;20098;-72
2023/10/17 10:53:22;;;;;;;9.55;3.60;;;;;;;;;;4993558;28;20130;-72
2023/10/17 10:56:04;;;;;;;8.32;2.90;;;;;;;;;;4993274;28;20045;-70
2023/10/17 10:58:34;;;;;;;7.90;3.05;;;;;;;;;;4993619;28;20034;-71
2023/10/17 11:01:02;;;;;;;8.60;3.40;;;;;;;;;;4993437;28;20034;-69
2023/10/17 11:03:30;;;;;;;19.17;4.10;;;;;;;;;;4994100;28;20033;-70
2023/10/17 11:05:58;;;;;;;10.45;3.60;;;;;;;;;;4992287;28;20057;-70
2023/10/17 11:08:25;;;;;;;12.00;3.72;;;;;;;;;;4985202;28;20033;-70
2023/10/17 11:10:58;;;;;;;7.80;3.35;;;;;;;;;;4988055;28;20181;-70
2023/10/17 11:13:34;;;;;;;8.07;4.95;;;;;;;;;;4992757;28;20042;-70
2023/10/17 11:16:01;;;;;;;8.18;4.72;;;;;;;;;;4992219;28;20042;-69
2023/10/17 11:18:28;;;;;;;10.63;4.43;;;;;;;;;;4990235;28;20093;-70
2023/10/17 11:20:56;;;;;;;8.90;4.85;;;;;;;;;;4972477;28;20049;-70
2023/10/17 11:23:26;;;;;;;11.07;4.35;;;;;;;;;;4972801;28;20041;-70
2023/10/17 11:25:53;;;;;;;7.18;3.58;;;;;;;;;;4972259;28;20489;-69
2023/10/17 11:28:21;;;;;;;9.10;3.78;;;;;;;;;;4972488;28;20026;-70
2023/10/17 11:30:48;;;;;;;4.28;1.80;;;;;;;;;;4971271;28;20038;-70
2023/10/17 11:33:18;;;;;;;5.05;1.70;;;;;;;;;;4972357;28;20529;-70
2023/10/17 11:35:52;;;;;;;5.43;2.28;;;;;;;;;;4972895;28;20382;-72
2023/10/17 11:38:38;;;;;;;3.60;1.70;;;;;;;;;;4972575;28;20389;-70
2023/10/17 11:41:05;;;;;;;5.88;2.25;;;;;;;;;;4971446;28;20027;-69
2023/10/17 11:43:51;;;;;;;9.00;2.90;;;;;;;;;;4972509;28;20035;-70
2023/10/17 11:46:29;;;;;;;12.23;2.92;;;;;;;;;;4972609;28;20035;-70
2023/10/17 11:49:28;;;;;;;6.50;2.15;;;;;;;;;;4971403;28;20051;-70
2023/10/17 11:52:01;;;;;;;5.90;2.35;;;;;;;;;;4971012;28;20133;-69
2023/10/17 11:54:27;;;;;;;12.10;1.98;;;;;;;;;;4972466;28;20035;-69
2023/10/17 11:56:56;;;;;;;5.45;2.25;;;;;;;;;;4972571;28;20038;-71
2023/10/17 11:59:22;;;;;;;4.32;1.70;;;;;;;;;;4972532;28;20035;-69
2023/10/17 12:01:52;;;;;;;10.55;2.70;;;;;;;;;;4972744;28;20106;-70
2023/10/17 12:04:19;;;;;;;4.53;2.10;;;;;;;;;;4971914;28;20090;-69
2023/10/17 12:06:48;;;;;;;6.18;2.08;;;;;;;;;;4971708;28;20031;-69
2023/10/17 12:09:17;;;;;;;4.90;1.52;;;;;;;;;;4972014;28;20042;-70
2023/10/17 12:11:47;;;;;;;4.22;1.90;;;;;;;;;;4972193;28;20018;-70
2023/10/17 12:14:23;;;;;;;4.78;2.00;;;;;;;;;;4971797;28;20548;-70
2023/10/17 12:16:58;;;;;;;12.68;2.28;;;;;;;;;;4972355;28;20109;-71
2023/10/17 12:19:27;;;;;;;6.20;1.90;;;;;;;;;;4972546;28;20069;-72
2023/10/17 12:21:56;;;;;;;5.82;1.83;;;;;;;;;;4972260;28;20023;-73
2023/10/17 12:24:28;;;;;;;10.18;1.98;;;;;;;;;;4971988;28;20433;-74
2023/10/17 12:26:57;;;;;;;7.07;1.83;;;;;;;;;;4970518;28;20038;-72
2023/10/17 12:29:26;;;;;;;5.05;1.63;;;;;;;;;;4970966;28;20405;-72
2023/10/17 12:31:57;;;;;;;4.30;1.77;;;;;;;;;;4969708;28;20031;-71
2023/10/17 12:34:24;;;;;;;4.80;1.52;;;;;;;;;;4971560;28;20031;-71
2023/10/17 12:36:50;;;;;;;7.32;2.40;;;;;;;;;;4971466;28;20035;-73
2023/10/17 12:39:19;;;;;;;7.25;1.70;;;;;;;;;;4972357;28;20039;-71
2023/10/17 12:41:49;;;;;;;6.32;2.00;;;;;;;;;;4972204;28;20122;-72
2023/10/17 12:44:15;;;;;;;5.07;1.90;;;;;;;;;;4972764;28;20417;-72
2023/10/17 12:46:41;;;;;;;4.40;2.05;;;;;;;;;;4972326;28;20053;-73
2023/10/17 12:49:10;;;;;;;3.60;1.92;;;;;;;;;;4972310;28;20484;-72
2023/10/17 12:51:37;;;;;;;7.63;2.00;;;;;;;;;;4972090;28;20477;-73
2023/10/17 12:54:03;;;;;;;6.35;2.00;;;;;;;;;;4970656;28;20059;-72
2023/10/17 12:56:31;;;;;;;6.82;1.95;;;;;;;;;;4971806;28;20567;-73
2023/10/17 12:58:59;;;;;;;4.93;2.33;;;;;;;;;;4972265;28;20057;-72
2023/10/17 13:01:25;;;;;;;7.47;2.55;;;;;;;;;;4972240;28;20389;-73
2023/10/17 13:03:57;;;;;;;6.82;1.85;;;;;;;;;;4972159;28;20057;-72
2023/10/17 13:06:26;;;;;;;7.88;2.05;;;;;;;;;;4970476;28;20122;-72
2023/10/17 13:08:56;;;;;;;5.22;2.20;;;;;;;;;;4972210;28;20098;-72
2023/10/17 13:11:28;;;;;;;5.50;2.50;;;;;;;;;;4972098;28;20041;-71
2023/10/17 13:13:55;;;;;;;8.07;2.97;;;;;;;;;;4972068;28;20035;-72
2023/10/17 13:16:23;;;;;;;15.98;4.05;;;;;;;;;;4971903;28;20105;-70
2023/10/17 13:18:50;;;;;;;15.63;4.53;;;;;;;;;;4972208;28;20041;-73
2023/10/17 13:21:19;;;;;;;10.88;3.38;;;;;;;;;;4972592;28;20031;-70
2023/10/17 13:23:45;;;;;;;7.20;2.42;;;;;;;;;;4972151;28;20050;-71
2023/10/17 13:26:11;;;;;;;5.30;2.10;;;;;;;;;;4972012;28;20136;-71
2023/10/17 13:28:38;;;;;;;10.95;2.33;;;;;;;;;;4972162;28;20038;-71
2023/10/17 13:31:10;;;;;;;6.22;2.45;;;;;;;;;;4971016;28;20482;-72
2023/10/17 13:33:38;;;;;;;10.82;2.30;;;;;;;;;;4972297;28;20053;-72
2023/10/17 13:36:06;;;;;;;3.97;2.10;;;;;;;;;;4971952;28;20126;-72
2023/10/17 13:38:32;;;;;;;7.07;2.80;;;;;;;;;;4973968;28;20082;-73
2023/10/17 13:41:06;;;;;;;6.55;3.40;;;;;;;;;;4975270;28;20031;-71
2023/10/17 13:43:33;;;;;;;7.40;3.20;;;;;;;;;;4973087;28;20163;-73
2023/10/17 13:46:02;;;;;;;10.13;3.58;;;;;;;;;;4974560;28;20045;-71
2023/10/17 13:48:28;;;;;;;9.10;3.25;;;;;;;;;;4975112;28;20413;-72
2023/10/17 13:51:02;;;;;;;6.70;2.70;;;;;;;;;;4975031;28;20038;-72
2023/10/17 13:53:27;;;;;;;8.52;3.90;;;;;;;;;;4975129;28;20089;-73
2023/10/17 13:55:54;;;;;;;9.50;3.80;;;;;;;;;;4970339;28;20404;-73
2023/10/17 13:58:20;;;;;;;6.80;3.20;;;;;;;;;;4975140;28;20114;-73
2023/10/17 14:00:51;;;;;;;7.43;3.50;;;;;;;;;;4975049;28;20157;-73
2023/10/17 14:03:17;;;;;;;7.80;3.78;;;;;;;;;;4974674;28;20113;-74
2023/10/17 14:05:49;;;;;;;7.70;3.78;;;;;;;;;;4974680;28;20050;-73
2023/10/17 14:08:17;;;;;;;5.15;2.75;;;;;;;;;;4974643;28;20053;-72
2023/10/17 14:10:46;;;;;;;12.90;3.63;;;;;;;;;;4973007;28;20033;-74
2023/10/17 14:13:15;;;;;;;7.38;3.20;;;;;;;;;;4974170;28;20031;-73
2023/10/17 14:15:40;;;;;;;8.88;4.00;;;;;;;;;;4973220;28;20158;-72
2023/10/17 14:18:13;;;;;;;7.78;3.10;;;;;;;;;;4974554;28;20062;-72
2023/10/17 14:23:30;;;;;;;7.53;3.42;;;;;;;;;;4974661;28;20093;-72
2023/10/17 14:26:11;;;;;;;9.23;4.40;;;;;;;;;;4974523;28;20045;-71
2023/10/17 14:28:39;;;;;;;9.50;4.25;;;;;;;;;;4966342;28;20154;-72
2023/10/17 14:31:05;;;;;;;9.05;4.30;;;;;;;;;;4974259;28;20209;-73
2023/10/17 14:33:32;;;;;;;9.25;3.90;;;;;;;;;;4974360;28;20046;-73
2023/10/17 14:36:10;;;;;;;5.75;3.30;;;;;;;;;;4974040;28;20027;-72
2023/10/17 14:38:35;;;;;;;9.57;3.90;;;;;;;;;;4980056;28;20107;-72
2023/10/17 14:41:11;;;;;;;9.88;4.32;;;;;;;;;;4993308;28;20419;-72
2023/10/17 14:43:49;;;;;;;9.73;3.92;;;;;;;;;;4991711;28;20523;-72
2023/10/17 14:46:16;;;;;;;7.72;4.00;;;;;;;;;;4993139;28;20080;-72
2023/10/17 14:48:44;;;;;;;5.72;3.28;;;;;;;;;;4992062;28;20054;-72
2023/10/17 14:51:12;;;;;;;6.40;4.13;;;;;;;;;;4992077;28;20397;-72
2023/10/17 14:53:42;;;;;;;7.32;3.53;;;;;;;;;;4978513;28;20037;-72
2023/10/17 14:56:12;;;;;;;7.10;3.78;;;;;;;;;;4973310;28;20134;-73
2023/10/17 14:58:51;;;;;;;9.50;3.60;;;;;;;;;;4973511;28;20085;-70
2023/10/17 15:01:16;;;;;;;6.60;3.53;;;;;;;;;;4987406;28;20039;-73
2023/10/17 15:03:47;;;;;;;6.00;2.97;;;;;;;;;;4975926;28;20029;-73
2023/10/17 15:06:15;;;;;;;3.85;2.50;;;;;;;;;;4973282;28;20058;-74
2023/10/17 15:08:40;;;;;;;5.95;3.10;;;;;;;;;;4973368;28;20122;-73
2023/10/17 15:11:06;;;;;;;6.00;2.92;;;;;;;;;;4973078;28;20479;-72
2023/10/17 15:13:35;;;;;;;7.13;2.85;;;;;;;;;;4973027;28;20034;-73
2023/10/17 15:16:02;;;;;;;4.85;2.90;;;;;;;;;;4971341;28;20461;-72
2023/10/17 15:18:29;;;;;;;4.90;3.15;;;;;;;;;;4973101;28;20030;-71
2023/10/17 15:21:08;;;;;;;8.35;2.95;;;;;;;;;;4973108;28;20567;-72
2023/10/17 15:23:35;;;;;;;6.15;3.22;;;;;;;;;;4972759;28;20523;-72
2023/10/17 15:26:01;;;;;;;9.40;3.67;;;;;;;;;;4973164;28;20089;-72
2023/10/17 15:28:27;;;;;;;6.22;3.20;;;;;;;;;;4972618;28;20050;-72
2023/10/17 15:31:02;;;;;;;6.75;3.85;;;;;;;;;;4972210;28;20102;-73
2023/10/17 15:33:28;;;;;;;8.63;3.42;;;;;;;;;;4972499;28;20034;-72
2023/10/17 15:35:53;;;;;;;6.60;3.45;;;;;;;;;;4972664;28;20532;-73
2023/10/17 15:38:22;;;;;;;5.45;3.38;;;;;;;;;;4972767;28;20504;-73
2023/10/17 15:40:49;;;;;;;8.63;3.85;;;;;;;;;;4972563;28;20112;-71
2023/10/17 15:43:16;;;;;;;10.73;3.72;;;;;;;;;;4970722;28;20037;-72
2023/10/17 15:45:54;;;;;;;10.48;4.15;;;;;;;;;;4969601;28;20030;-71
2023/10/17 15:48:26;;;;;;;9.60;4.63;;;;;;;;;;4972510;28;20287;-71
2023/10/17 15:50:56;;;;;;;7.13;4.30;;;;;;;;;;4972973;28;20034;-70
2023/10/17 15:53:23;;;;;;;10.82;3.97;;;;;;;;;;4972612;28;20046;-71
2023/10/17 15:55:56;;;;;;;11.80;5.13;;;;;;;;;;4972141;28;20378;-71
2023/10/17 15:58:22;;;;;;;;;;;;;;;;;;4973058;28;20377;-72
2023/10/17 16:00:51;;;;;;;7.28;3.85;;;;;;;;;;4970024;28;19953;-71
2023/10/17 16:03:18;;;;;;;9.13;3.70;;;;;;;;;;4969654;28;20073;-71
2023/10/17 16:05:51;;;;;;;7.10;3.72;;;;;;;;;;4967835;28;20051;-71
2023/10/17 16:08:18;;;;;;;8.32;3.90;;;;;;;;;;4970366;28;20365;-70
2023/10/17 16:10:45;;;;;;;8.00;3.65;;;;;;;;;;4966984;28;20031;-72
2023/10/17 16:13:13;;;;;;;8.77;3.88;;;;;;;;;;4967793;28;20089;-70
2023/10/17 16:15:39;;;;;;;14.38;4.53;;;;;;;;;;4967221;28;20043;-70
2023/10/17 16:18:06;;;;;;;16.60;4.65;;;;;;;;;;4966309;28;20042;-71
2023/10/17 16:20:34;;;;;;;8.80;4.25;;;;;;;;;;4966273;28;20034;-73
2023/10/17 16:23:06;;;;;;;9.20;4.13;;;;;;;;;;4968071;28;20396;-72
2023/10/17 16:25:33;;;;;;;9.07;3.70;;;;;;;;;;4967590;28;20055;-72
2023/10/17 16:28:00;;;;;;;8.82;5.00;;;;;;;;;;4967564;28;20822;-71
2023/10/17 16:30:26;;;;;;;14.38;6.00;;;;;;;;;;4966945;28;20073;-71
2023/10/17 16:32:54;;;;;;;12.35;5.93;;;;;;;;;;4966968;28;20019;-71
2023/10/17 16:35:21;;;;;;;13.82;5.57;;;;;;;;;;4970486;28;20039;-72
2023/10/17 16:37:48;;;;;;;14.18;5.75;;;;;;;;;;4968020;28;20064;-71
2023/10/17 16:40:14;;;;;;;6.78;4.45;;;;;;;;;;4983174;28;20187;-71
2023/10/17 16:42:47;;;;;;;9.05;4.35;;;;;;;;;;4967811;28;20061;-71
2023/10/17 16:45:14;;;;;;;8.93;4.88;;;;;;;;;;4981944;28;20038;-71
2023/10/17 16:47:42;;;;;;;12.63;5.60;;;;;;;;;;4977954;28;20031;-71
2023/10/17 16:50:12;;;;;;;13.57;7.20;;;;;;;;;;4967478;28;20030;-71
2023/10/17 16:52:39;;;;;;;15.20;7.13;;;;;;;;;;4962294;28;20039;-72
2023/10/17 16:55:05;;;;;;;13.05;6.47;;;;;;;;;;4959043;28;20199;-70
2023/10/17 16:57:31;;;;;;;11.98;7.10;;;;;;;;;;4961333;28;20034;-72
2023/10/17 17:00:00;;;;;;;11.15;7.03;;;;;;;;;;4962509;28;20491;-71
2023/10/17 17:02:25;;;;;;;14.82;7.70;;;;;;;;;;4960685;28;20501;-72
2023/10/17 17:04:52;;;;;;;17.95;9.05;;;;;;;;;;4961705;28;20051;-71
2023/10/17 17:07:18;;;;;;;14.07;9.45;;;;;;;;;;4961291;28;20039;-71
2023/10/17 17:09:44;;;;;;;11.50;7.28;;;;;;;;;;4961192;28;20520;-71
2023/10/17 17:12:11;;;;;;;11.95;7.35;;;;;;;;;;4960603;28;20085;-71
2023/10/17 17:14:38;;;;;;;14.23;7.43;;;;;;;;;;4962194;28;20034;-71
2023/10/17 17:17:04;;;;;;;13.32;6.93;;;;;;;;;;4959055;28;20027;-71
2023/10/17 17:19:30;;;;;;;16.80;8.75;;;;;;;;;;4967744;28;20093;-71
2023/10/17 17:21:56;;;;;;;11.38;6.55;;;;;;;;;;4971154;28;20050;-72
2023/10/17 17:24:23;;;;;;;14.95;6.65;;;;;;;;;;4971045;28;20047;-72
2023/10/17 17:26:53;;;;;;;13.27;6.95;;;;;;;;;;4970501;28;20098;-73